createdAt,value
2019-04-11T00:02:05.150Z,13.60
2019-04-11T00:04:37.935Z,13.80
2019-04-11T00:07:07.635Z,14.00
2019-04-11T00:09:36.805Z,13.90
2019-04-11T00:12:06.298Z,13.70
2019-04-11T00:14:35.868Z,13.80
2019-04-11T00:17:05.778Z,13.60
2019-04-11T00:19:34.368Z,13.70
2019-04-11T00:22:03.520Z,13.70
2019-04-11T00:24:32.203Z,13.50
2019-04-11T00:27:00.904Z,13.30
2019-04-11T00:29:30.292Z,13.40
2019-04-11T00:31:59.064Z,13.30
2019-04-11T00:34:27.634Z,13.20
2019-04-11T00:36:56.840Z,13.40
2019-04-11T00:39:25.810Z,13.40
2019-04-11T00:41:54.582Z,13.60
2019-04-11T00:44:23.105Z,13.50
2019-04-11T00:46:52.882Z,13.60
2019-04-11T00:49:22.054Z,13.70
2019-04-11T00:51:51.923Z,13.70
2019-04-11T00:54:20.728Z,13.40
2019-04-11T00:56:50.489Z,13.30
2019-04-11T00:59:20.191Z,13.70
2019-04-11T01:01:50.087Z,13.60
2019-04-11T01:04:20.028Z,13.60
2019-04-11T01:06:50.090Z,13.50
2019-04-11T01:09:18.726Z,13.60
2019-04-11T01:11:47.914Z,13.70
2019-04-11T01:14:17.403Z,13.50
2019-04-11T01:16:51.317Z,13.60
2019-04-11T01:19:20.232Z,13.50
2019-04-11T01:21:49.123Z,13.50
2019-04-11T01:24:17.963Z,13.50
2019-04-11T01:26:47.539Z,13.50
2019-04-11T01:29:17.764Z,13.50
2019-04-11T01:31:51.663Z,13.50
2019-04-11T01:34:20.314Z,13.50
2019-04-11T01:36:49.226Z,13.40
2019-04-11T01:39:49.616Z,13.40
2019-04-11T01:42:19.497Z,13.30
2019-04-11T01:44:49.308Z,13.30
2019-04-11T01:47:27.001Z,13.50
2019-04-11T01:49:56.609Z,13.50
2019-04-11T01:52:26.533Z,13.60
2019-04-11T01:54:56.513Z,13.40
2019-04-11T01:57:25.596Z,13.40
2019-04-11T01:59:55.469Z,13.20
2019-04-11T02:02:56.905Z,13.30
2019-04-11T02:05:27.627Z,13.40
2019-04-11T02:07:56.512Z,13.50
2019-04-11T02:10:26.479Z,13.30
2019-04-11T02:12:55.354Z,13.20
2019-04-11T02:15:25.134Z,13.40
2019-04-11T02:17:54.982Z,13.40
2019-04-11T02:20:24.888Z,13.30
2019-04-11T02:23:08.756Z,13.10
2019-04-11T02:26:03.079Z,13.20
2019-04-11T02:28:32.786Z,13.20
2019-04-11T02:31:02.897Z,13.20
2019-04-11T02:33:32.924Z,13.30
2019-04-11T02:36:03.224Z,13.30
2019-04-11T02:38:32.776Z,13.30
2019-04-11T02:41:03.692Z,13.30
2019-04-11T02:43:34.284Z,13.30
2019-04-11T02:46:15.248Z,13.30
2019-04-11T02:48:35.521Z,13.40
2019-04-11T02:51:07.242Z,13.30
2019-04-11T02:53:36.842Z,13.40
2019-04-11T02:56:08.628Z,13.30
2019-04-11T02:58:39.037Z,13.40
2019-04-11T03:01:09.689Z,13.40
2019-04-11T03:03:39.501Z,13.40
2019-04-11T03:06:09.654Z,13.30
2019-04-11T03:08:41.135Z,13.40
2019-04-11T03:11:10.822Z,13.50
2019-04-11T03:13:40.213Z,13.40
2019-04-11T03:16:24.766Z,13.40
2019-04-11T03:18:55.014Z,13.20
2019-04-11T03:21:14.534Z,13.30
2019-04-11T03:23:41.748Z,13.30
2019-04-11T03:26:12.397Z,13.20
2019-04-11T03:28:46.779Z,13.30
2019-04-11T03:33:54.507Z,13.20
2019-04-11T03:36:59.943Z,13.20
2019-04-11T03:39:16.932Z,13.20
2019-04-11T03:41:54.660Z,13.30
2019-04-11T03:44:35.754Z,13.30
2019-04-11T03:47:48.376Z,13.30
2019-04-11T03:50:16.907Z,13.20
2019-04-11T03:52:45.045Z,13.30
2019-04-11T03:55:19.321Z,13.30
2019-04-11T03:57:49.151Z,13.40
2019-04-11T04:00:19.421Z,13.40
2019-04-11T04:02:49.587Z,13.20
2019-04-11T04:05:21.723Z,13.30
2019-04-11T04:07:52.388Z,13.30
2019-04-11T04:10:23.691Z,13.30
2019-04-11T04:12:53.608Z,13.30
2019-04-11T04:15:59.738Z,13.20
2019-04-11T04:18:38.101Z,13.10
2019-04-11T04:21:26.461Z,13.30
2019-04-11T04:23:59.411Z,13.30
2019-04-11T04:26:33.545Z,13.20
2019-04-11T04:29:02.630Z,13.20
2019-04-11T04:31:32.951Z,13.20
2019-04-11T04:34:02.078Z,13.20
2019-04-11T04:36:35.727Z,13.20
2019-04-11T04:39:05.850Z,13.20
2019-04-11T04:41:47.872Z,13.20
2019-04-11T04:44:12.629Z,13.30
2019-04-11T04:46:55.547Z,13.30
2019-04-11T04:49:13.169Z,13.30
2019-04-11T04:51:43.541Z,13.30
2019-04-11T04:54:14.098Z,13.20
2019-04-11T04:56:46.012Z,13.20
2019-04-11T04:59:16.251Z,13.20
2019-04-11T05:01:46.306Z,13.30
2019-04-11T05:04:15.822Z,13.30
2019-04-11T05:06:48.103Z,13.30
2019-04-11T05:09:14.832Z,13.30
2019-04-11T05:11:44.616Z,13.20
2019-04-11T05:14:14.681Z,13.40
2019-04-11T05:16:44.174Z,13.30
2019-04-11T05:19:13.325Z,13.20
2019-04-11T05:21:42.107Z,13.30
2019-04-11T05:24:10.733Z,13.30
2019-04-11T05:26:39.683Z,13.20
2019-04-11T05:29:09.090Z,13.40
2019-04-11T05:31:38.718Z,13.30
2019-04-11T05:34:07.784Z,13.40
2019-04-11T05:36:36.653Z,13.30
2019-04-11T05:39:06.921Z,13.30
2019-04-11T05:41:35.470Z,13.30
2019-04-11T05:44:08.867Z,13.20
2019-04-11T05:46:47.249Z,13.30
2019-04-11T05:49:21.655Z,13.30
2019-04-11T05:52:03.976Z,13.40
2019-04-11T05:54:41.838Z,13.40
2019-04-11T05:57:13.180Z,13.40
2019-04-11T05:59:48.752Z,13.40
2019-04-11T06:02:45.723Z,13.30
2019-04-11T06:06:12.754Z,13.40
2019-04-11T06:08:42.248Z,13.10
2019-04-11T06:11:33.093Z,13.40
2019-04-11T06:14:17.219Z,13.30
2019-04-11T06:16:52.627Z,13.20
2019-04-11T06:19:34.547Z,13.20
2019-04-11T06:22:06.643Z,13.50
2019-04-11T06:25:11.249Z,13.60
2019-04-11T06:28:02.505Z,13.50
2019-04-11T06:30:53.076Z,13.30
2019-04-11T06:33:29.572Z,13.20
2019-04-11T06:36:18.102Z,13.40
2019-04-11T06:39:19.083Z,13.40
2019-04-11T06:42:08.460Z,13.30
2019-04-11T06:44:56.430Z,13.30
2019-04-11T06:47:59.519Z,13.30
2019-04-11T06:50:41.755Z,13.30
2019-04-11T06:53:12.275Z,13.30
2019-04-11T06:56:00.112Z,13.30
2019-04-11T06:58:37.125Z,13.20
2019-04-11T07:01:13.935Z,13.40
2019-04-11T07:03:48.997Z,13.20
2019-04-11T07:06:21.722Z,13.10
2019-04-11T07:09:12.480Z,13.00
2019-04-11T07:11:45.763Z,13.20
2019-04-11T07:14:27.007Z,13.20
2019-04-11T07:17:15.411Z,13.10
2019-04-11T07:19:58.025Z,13.00
2019-04-11T07:22:45.007Z,13.00
2019-04-11T07:25:33.104Z,13.00
2019-04-11T07:28:25.273Z,13.30
2019-04-11T07:31:16.748Z,13.30
2019-04-11T07:34:06.143Z,14.00
2019-04-11T07:37:04.543Z,13.40
2019-04-11T07:40:00.671Z,13.30
2019-04-11T07:42:49.610Z,13.10
2019-04-11T07:45:27.154Z,13.20
2019-04-11T07:48:09.241Z,13.20
2019-04-11T07:50:38.302Z,13.10
2019-04-11T07:53:08.573Z,13.10
2019-04-11T07:55:39.987Z,13.30
2019-04-11T07:58:28.613Z,13.10
2019-04-11T08:01:17.179Z,13.20
2019-04-11T08:04:06.016Z,13.20
2019-04-11T08:06:54.471Z,13.20
2019-04-11T08:09:41.544Z,13.20
2019-04-11T08:12:15.011Z,13.20
2019-04-11T08:14:59.955Z,13.30
2019-04-11T08:17:38.544Z,13.20
2019-04-11T08:20:41.558Z,13.30
2019-04-11T08:23:11.706Z,13.40
2019-04-11T08:25:59.930Z,13.50
2019-04-11T08:28:29.339Z,13.60
2019-04-11T08:31:26.477Z,13.60
2019-04-11T08:34:01.158Z,13.50
2019-04-11T08:36:48.945Z,13.40
2019-04-11T08:39:22.858Z,13.60
2019-04-11T08:42:23.450Z,13.60
2019-04-11T08:44:54.209Z,13.60
2019-04-11T08:47:24.451Z,13.50
2019-04-11T08:49:57.022Z,13.60
2019-04-11T08:52:40.327Z,13.70
2019-04-11T08:55:30.487Z,13.70
2019-04-11T08:58:06.484Z,13.60
2019-04-11T09:01:07.478Z,13.70
2019-04-11T09:04:02.084Z,13.60
2019-04-11T09:06:30.633Z,13.80
2019-04-11T09:09:18.813Z,13.20
2019-04-11T09:12:02.559Z,13.90
2019-04-11T09:14:50.565Z,13.90
2019-04-11T09:17:26.061Z,14.00
2019-04-11T09:20:21.314Z,14.00
2019-04-11T09:23:01.546Z,14.00
2019-04-11T09:25:51.608Z,14.20
2019-04-11T09:28:37.674Z,14.30
2019-04-11T09:31:27.483Z,14.20
2019-04-11T09:34:09.194Z,14.30
2019-04-11T09:37:15.426Z,14.10
2019-04-11T09:39:59.384Z,14.20
2019-04-11T09:43:03.812Z,13.50
2019-04-11T09:45:52.586Z,14.20
2019-04-11T09:48:31.420Z,14.20
2019-04-11T09:51:21.245Z,14.50
2019-04-11T09:53:55.461Z,14.50
2019-04-11T09:56:43.739Z,14.60
2019-04-11T09:59:20.726Z,14.50
2019-04-11T10:02:08.058Z,14.50
2019-04-11T10:04:37.192Z,14.40
2019-04-11T10:07:30.097Z,14.40
2019-04-11T10:10:19.042Z,14.60
2019-04-11T10:13:06.811Z,14.60
2019-04-11T10:16:03.994Z,14.80
2019-04-11T10:19:00.931Z,14.80
2019-04-11T10:21:31.084Z,14.80
2019-04-11T10:24:16.627Z,14.90
2019-04-11T10:26:49.947Z,14.60
2019-04-11T10:29:37.966Z,14.60
2019-04-11T10:32:06.882Z,14.70
2019-04-11T10:34:57.635Z,14.70
2019-04-11T10:37:27.602Z,14.50
2019-04-11T10:40:21.499Z,14.40
2019-04-11T10:42:51.889Z,14.50
2019-04-11T10:45:39.014Z,14.50
2019-04-11T10:48:09.518Z,14.40
2019-04-11T10:50:56.517Z,14.50
2019-04-11T10:53:26.954Z,14.50
2019-04-11T10:56:15.976Z,14.10
2019-04-11T10:58:51.203Z,14.30
2019-04-11T11:01:50.593Z,14.20
2019-04-11T11:04:37.133Z,14.30
2019-04-11T11:07:18.662Z,14.20
2019-04-11T11:10:07.347Z,14.30
2019-04-11T11:13:05.577Z,14.20
2019-04-11T11:15:41.920Z,14.40
2019-04-11T11:19:01.980Z,14.60
2019-04-11T11:21:13.366Z,14.70
2019-04-11T11:24:00.885Z,14.70
2019-04-11T11:26:35.436Z,14.70
2019-04-11T11:29:24.209Z,14.60
2019-04-11T11:32:15.047Z,14.50
2019-04-11T11:35:03.431Z,14.60
2019-04-11T11:38:07.628Z,14.70
2019-04-11T11:40:54.520Z,14.50
2019-04-11T11:43:28.437Z,14.30
2019-04-11T11:46:16.091Z,14.30
2019-04-11T11:49:19.230Z,14.80
2019-04-11T11:52:11.399Z,14.90
2019-04-11T11:54:48.035Z,14.90
2019-04-11T11:57:24.529Z,14.90
2019-04-11T12:00:03.842Z,15.00
2019-04-11T12:02:54.043Z,15.10
2019-04-11T12:05:26.932Z,14.70
2019-04-11T12:08:28.659Z,14.70
2019-04-11T12:11:01.872Z,14.80
2019-04-11T12:13:49.418Z,14.70
2019-04-11T12:16:28.300Z,15.00
2019-04-11T12:19:43.581Z,15.20
2019-04-11T12:22:04.221Z,15.60
2019-04-11T12:24:50.699Z,15.40
2019-04-11T12:27:43.618Z,15.50
2019-04-11T12:30:23.408Z,15.70
2019-04-11T12:33:01.772Z,14.90
2019-04-11T12:35:48.629Z,15.70
2019-04-11T12:41:20.167Z,15.70
2019-04-11T12:44:08.979Z,15.60
2019-04-11T12:46:55.909Z,15.60
2019-04-11T12:49:52.420Z,15.70
2019-04-11T12:52:47.961Z,15.50
2019-04-11T12:55:22.654Z,15.50
2019-04-11T12:58:11.206Z,15.80
2019-04-11T13:00:59.707Z,15.80
2019-04-11T13:03:46.984Z,15.60
2019-04-11T13:06:34.832Z,15.50
2019-04-11T13:09:18.924Z,15.40
2019-04-11T13:11:48.610Z,15.50
2019-04-11T13:14:36.843Z,15.60
2019-04-11T13:17:06.853Z,15.60
2019-04-11T13:20:04.252Z,16.00
2019-04-11T13:22:25.453Z,16.10
2019-04-11T13:25:08.313Z,16.40
2019-04-11T13:27:41.302Z,16.10
2019-04-11T13:30:28.114Z,16.00
2019-04-11T13:33:07.035Z,16.00
2019-04-11T13:36:01.061Z,16.10
2019-04-11T13:38:51.504Z,16.00
2019-04-11T13:41:37.913Z,15.90
2019-04-11T13:44:21.277Z,15.80
2019-04-11T13:47:09.358Z,15.80
2019-04-11T13:49:41.234Z,15.70
2019-04-11T13:52:29.383Z,15.80
2019-04-11T13:55:17.511Z,15.80
2019-04-11T13:58:03.076Z,15.60
2019-04-11T14:01:00.274Z,15.50
2019-04-11T14:03:48.435Z,15.50
2019-04-11T14:06:22.663Z,15.50
2019-04-11T14:09:10.636Z,15.50
2019-04-11T14:11:43.119Z,15.60
2019-04-11T14:14:14.887Z,15.60
2019-04-11T14:17:01.558Z,15.50
2019-04-11T14:19:49.579Z,15.40
2019-04-11T14:22:18.929Z,15.50
2019-04-11T14:25:11.416Z,15.50
2019-04-11T14:27:38.097Z,15.60
2019-04-11T14:30:38.723Z,15.50
2019-04-11T14:33:09.832Z,15.10
2019-04-11T14:36:33.576Z,15.20
2019-04-11T14:39:03.874Z,15.50
2019-04-11T14:41:52.198Z,15.60
2019-04-11T14:44:20.871Z,15.40
2019-04-11T14:47:14.721Z,15.50
2019-04-11T14:49:44.942Z,15.30
2019-04-11T14:52:38.897Z,15.20
2019-04-11T14:55:08.771Z,15.20
2019-04-11T14:57:47.225Z,15.20
2019-04-11T15:00:39.571Z,15.10
2019-04-11T15:03:26.378Z,15.20
2019-04-11T15:06:33.085Z,15.40
2019-04-11T15:09:30.273Z,15.50
2019-04-11T15:12:04.436Z,15.30
2019-04-11T15:14:55.166Z,15.20
2019-04-11T15:17:27.046Z,15.30
2019-04-11T15:20:04.619Z,15.20
2019-04-11T15:22:44.964Z,15.20
2019-04-11T15:25:35.685Z,15.40
2019-04-11T15:28:15.392Z,15.20
2019-04-11T15:30:48.534Z,15.10
2019-04-11T15:33:43.436Z,15.00
2019-04-11T15:36:13.312Z,15.00
2019-04-11T15:39:07.128Z,15.00
2019-04-11T15:41:36.717Z,15.00
2019-04-11T15:44:24.379Z,14.90
2019-04-11T15:46:56.182Z,14.70
2019-04-11T15:49:40.154Z,14.70
2019-04-11T15:52:14.758Z,14.70
2019-04-11T15:55:02.415Z,14.70
2019-04-11T15:57:52.440Z,14.70
2019-04-11T16:00:39.430Z,14.80
2019-04-11T16:03:12.187Z,14.60
2019-04-11T16:06:13.069Z,14.60
2019-04-11T16:08:43.953Z,14.80
2019-04-11T16:11:30.709Z,14.50
2019-04-11T16:14:22.399Z,14.50
2019-04-11T16:17:13.744Z,14.50
2019-04-11T16:20:00.387Z,14.50
2019-04-11T16:22:47.049Z,14.60
2019-04-11T16:25:17.558Z,14.50
2019-04-11T16:28:11.418Z,14.60
2019-04-11T16:30:59.530Z,14.50
2019-04-11T16:33:47.579Z,14.60
2019-04-11T16:36:27.005Z,14.50
2019-04-11T16:39:11.348Z,14.50
2019-04-11T16:42:02.749Z,14.30
2019-04-11T16:44:57.895Z,14.40
2019-04-11T16:47:57.956Z,14.20
2019-04-11T16:50:26.602Z,14.40
2019-04-11T16:52:55.038Z,14.40
2019-04-11T16:55:23.546Z,14.40
2019-04-11T16:57:52.084Z,14.50
2019-04-11T17:00:21.274Z,14.40
2019-04-11T17:02:50.234Z,14.30
2019-04-11T17:05:18.957Z,14.40
2019-04-11T17:08:07.033Z,14.30
2019-04-11T17:10:57.383Z,14.40
2019-04-11T17:13:26.019Z,14.50
2019-04-11T17:15:55.434Z,14.50
2019-04-11T17:18:23.919Z,14.60
2019-04-11T17:20:52.536Z,14.60
2019-04-11T17:23:21.200Z,14.50
2019-04-11T17:25:52.890Z,14.40
2019-04-11T17:28:23.051Z,14.40
2019-04-11T17:30:55.067Z,14.60
2019-04-11T17:33:22.133Z,14.60
2019-04-11T17:35:50.788Z,14.50
2019-04-11T17:38:19.393Z,14.60
2019-04-11T17:40:48.214Z,14.60
2019-04-11T17:43:16.994Z,14.40
2019-04-11T17:45:45.723Z,14.30
2019-04-11T17:48:14.256Z,14.40
2019-04-11T17:50:42.920Z,14.40
2019-04-11T17:53:11.502Z,14.40
2019-04-11T17:55:40.242Z,14.50
2019-04-11T17:58:08.832Z,14.40
2019-04-11T18:00:39.792Z,14.40
2019-04-11T18:03:11.752Z,14.40
2019-04-11T18:05:38.790Z,14.40
2019-04-11T18:08:07.268Z,14.40
2019-04-11T18:10:36.156Z,14.40
2019-04-11T18:13:04.855Z,14.40
2019-04-11T18:15:35.418Z,14.40
2019-04-11T18:18:07.272Z,14.40
2019-04-11T18:20:37.087Z,14.50
2019-04-11T18:23:06.230Z,14.50
2019-04-11T18:25:34.873Z,14.50
2019-04-11T18:28:03.453Z,14.50
2019-04-11T18:30:33.276Z,14.40
2019-04-11T18:33:02.361Z,14.40
2019-04-11T18:35:32.444Z,14.40
2019-04-11T18:38:02.056Z,14.30
2019-04-11T18:40:31.381Z,14.30
2019-04-11T18:43:00.096Z,14.30
2019-04-11T18:45:40.791Z,14.20
2019-04-11T18:48:09.596Z,14.20
2019-04-11T18:50:38.545Z,14.30
2019-04-11T18:53:07.356Z,14.30
2019-04-11T18:55:35.807Z,14.30
2019-04-11T18:58:04.937Z,14.30
2019-04-11T19:00:35.781Z,14.30
2019-04-11T19:03:04.798Z,14.20
2019-04-11T19:05:33.709Z,14.10
2019-04-11T19:08:02.504Z,14.20
2019-04-11T19:10:30.973Z,14.10
2019-04-11T19:12:59.952Z,14.10
2019-04-11T19:15:28.856Z,14.00
2019-04-11T19:18:06.147Z,13.90
2019-04-11T19:20:28.396Z,13.90
2019-04-11T19:22:56.937Z,14.00
2019-04-11T19:25:25.806Z,14.20
2019-04-11T19:27:57.192Z,14.30
2019-04-11T19:30:26.448Z,14.20
2019-04-11T19:32:55.825Z,14.20
2019-04-11T19:35:24.393Z,14.20
2019-04-11T19:37:53.164Z,14.30
2019-04-11T19:40:21.797Z,14.20
2019-04-11T19:42:50.467Z,14.00
2019-04-11T19:45:19.449Z,14.10
2019-04-11T19:47:51.450Z,14.10
2019-04-11T19:50:20.418Z,14.00
2019-04-11T19:52:49.178Z,13.80
2019-04-11T19:55:52.531Z,13.80
2019-04-11T19:58:23.477Z,13.70
2019-04-11T20:00:53.919Z,13.70
2019-04-11T20:03:24.235Z,13.80
2019-04-11T20:05:53.249Z,13.90
2019-04-11T20:08:21.842Z,13.90
2019-04-11T20:10:50.355Z,13.80
2019-04-11T20:13:18.850Z,13.90
2019-04-11T20:15:50.387Z,14.00
2019-04-11T20:18:22.327Z,13.90
2019-04-11T20:20:48.350Z,13.80
2019-04-11T20:23:18.201Z,13.80
2019-04-11T20:25:49.747Z,13.70
2019-04-11T20:28:19.875Z,13.90
2019-04-11T20:30:47.587Z,13.90
2019-04-11T20:33:26.519Z,13.80
2019-04-11T20:35:46.333Z,13.80
2019-04-11T20:38:16.234Z,13.80
2019-04-11T20:40:45.265Z,13.80
2019-04-11T20:43:13.865Z,13.90
2019-04-11T20:45:42.865Z,13.80
2019-04-11T20:48:11.611Z,13.70
2019-04-11T20:50:40.250Z,13.60
2019-04-11T20:53:12.872Z,13.50
2019-04-11T20:55:40.453Z,13.70
2019-04-11T20:58:10.371Z,13.60
2019-04-11T21:00:49.448Z,13.60
2019-04-11T21:03:10.625Z,13.60
2019-04-11T21:05:39.312Z,13.60
2019-04-11T21:08:07.982Z,13.80
2019-04-11T21:10:36.488Z,13.50
2019-04-11T21:13:07.240Z,13.60
2019-04-11T21:15:35.662Z,13.70
2019-04-11T21:18:04.377Z,13.60
2019-04-11T21:20:32.896Z,13.60
2019-04-11T21:23:01.469Z,13.60
2019-04-11T21:25:30.035Z,13.70
2019-04-11T21:27:59.060Z,13.80
2019-04-11T21:30:30.501Z,13.60
2019-04-11T21:33:01.188Z,13.60
2019-04-11T21:35:30.961Z,13.70
2019-04-11T21:38:00.290Z,13.70
2019-04-11T21:40:29.722Z,13.40
2019-04-11T21:42:58.279Z,13.40
2019-04-11T21:45:26.889Z,13.40
2019-04-11T21:47:55.546Z,13.50
2019-04-11T21:50:24.041Z,13.50
2019-04-11T21:52:52.673Z,13.60
2019-04-11T21:55:21.164Z,13.50
2019-04-11T21:57:49.743Z,13.50
2019-04-11T22:00:26.926Z,13.50
2019-04-11T22:02:57.414Z,13.60
2019-04-11T22:05:28.911Z,13.60
2019-04-11T22:07:56.606Z,13.60
2019-04-11T22:10:25.649Z,13.50
2019-04-11T22:12:54.388Z,13.50
2019-04-11T22:15:23.009Z,13.60
2019-04-11T22:17:51.686Z,13.50
2019-04-11T22:20:20.387Z,13.60
2019-04-11T22:22:48.919Z,13.60
2019-04-11T22:25:17.661Z,13.60
2019-04-11T22:27:46.379Z,13.50
2019-04-11T22:30:17.108Z,13.30
2019-04-11T22:32:49.267Z,13.20
2019-04-11T22:35:18.070Z,13.00
2019-04-11T22:37:46.723Z,12.90
2019-04-11T22:40:15.357Z,12.90
2019-04-11T22:42:44.135Z,13.00
2019-04-11T22:45:12.833Z,13.00
2019-04-11T22:47:41.502Z,12.80
2019-04-11T22:50:10.753Z,12.90
2019-04-11T22:52:39.821Z,12.90
2019-04-11T22:55:11.259Z,13.20
2019-04-11T22:57:40.874Z,13.10
2019-04-11T23:00:14.702Z,13.20
2019-04-11T23:02:49.651Z,13.30
2019-04-11T23:05:18.286Z,13.20
2019-04-11T23:07:48.349Z,13.20
2019-04-11T23:10:17.754Z,13.20
2019-04-11T23:12:46.634Z,13.20
2019-04-11T23:15:15.734Z,13.20
2019-04-11T23:17:44.731Z,13.20
2019-04-11T23:20:14.398Z,13.30
2019-04-11T23:22:43.828Z,13.30
2019-04-11T23:25:12.514Z,13.10
2019-04-11T23:28:04.902Z,13.00
2019-04-11T23:30:33.806Z,13.00
2019-04-11T23:33:02.392Z,13.10
2019-04-11T23:35:30.874Z,13.00
2019-04-11T23:37:59.444Z,12.90
2019-04-11T23:40:28.157Z,12.80
2019-04-11T23:42:56.811Z,12.80
2019-04-11T23:45:27.355Z,12.70
2019-04-11T23:47:56.311Z,12.80
2019-04-11T23:50:25.847Z,12.90
2019-04-11T23:52:57.248Z,12.90
2019-04-11T23:55:25.502Z,12.90
2019-04-11T23:57:54.230Z,12.90
